Time;durP1;ratioP1;P1;durP2;ratioP2;P2;SDS_P1;SDS_P2;PMS_P1;PMS_P2;Temp;Humidity;BMP_temperature;BMP_pressure;BME280_temperature;BME280_humidity;BME280_pressure;Samples;Min_cycle;Max_cycle;Signal;HPM_P1;HPM_P2
2023/12/19 00:00:43;;;;;;;33.55;16.13;;;8.20;99.90;;;;;;5076378;28;20036;-69
2023/12/19 00:03:11;;;;;;;35.35;16.27;;;8.20;99.90;;;;;;5080404;28;20040;-68
2023/12/19 00:05:39;;;;;;;32.88;16.02;;;8.10;99.90;;;;;;5064043;28;20434;-68
2023/12/19 00:08:05;;;;;;;35.50;16.50;;;8.20;99.90;;;;;;5083821;28;20040;-70
2023/12/19 00:10:31;;;;;;;33.83;16.13;;;8.10;99.90;;;;;;5080715;28;20036;-75
2023/12/19 00:12:57;;;;;;;33.75;16.23;;;8.10;99.90;;;;;;5078662;28;20044;-78
2023/12/19 00:15:23;;;;;;;33.10;15.73;;;8.10;99.90;;;;;;5079627;28;20432;-71
2023/12/19 00:17:49;;;;;;;33.40;16.00;;;8.00;99.90;;;;;;5088755;28;20589;-69
2023/12/19 00:20:15;;;;;;;37.40;15.35;;;8.10;99.90;;;;;;5079844;28;20028;-69
2023/12/19 00:22:40;;;;;;;32.13;15.67;;;8.00;99.90;;;;;;5084333;28;20044;-69
2023/12/19 00:25:06;;;;;;;34.33;15.20;;;8.00;99.90;;;;;;5076347;28;20067;-68
2023/12/19 00:27:32;;;;;;;37.00;16.50;;;8.00;99.90;;;;;;5082031;28;20295;-69
2023/12/19 00:29:58;;;;;;;33.13;16.60;;;8.00;99.90;;;;;;5084074;28;20075;-69
2023/12/19 00:32:23;;;;;;;32.87;16.20;;;8.00;99.90;;;;;;5070833;28;20067;-69
2023/12/19 00:34:49;;;;;;;36.97;16.23;;;8.00;99.90;;;;;;5063165;28;20525;-69
2023/12/19 00:37:14;;;;;;;36.87;16.57;;;8.00;99.90;;;;;;5088454;28;20044;-69
2023/12/19 00:39:40;;;;;;;37.07;17.57;;;8.00;99.90;;;;;;5080333;28;20511;-69
2023/12/19 00:42:05;;;;;;;33.60;16.27;;;8.00;99.90;;;;;;5078899;28;20044;-69
2023/12/19 00:44:31;;;;;;;34.20;15.10;;;8.00;99.90;;;;;;5088459;28;20400;-69
2023/12/19 00:46:57;;;;;;;34.57;16.80;;;8.00;99.90;;;;;;5079933;28;20104;-68
2023/12/19 00:49:22;;;;;;;37.47;16.97;;;8.00;99.90;;;;;;5078881;28;20058;-69
2023/12/19 00:51:51;;;;;;;34.20;14.53;;;8.00;99.90;;;;;;5081377;28;20512;-69
2023/12/19 00:54:16;;;;;;;33.45;14.88;;;8.00;99.90;;;;;;5084569;28;20050;-69
2023/12/19 00:56:42;;;;;;;31.33;14.40;;;7.90;99.90;;;;;;5085122;28;20048;-69
2023/12/19 00:59:08;;;;;;;29.07;14.40;;;7.90;99.90;;;;;;5081138;28;20403;-69
2023/12/19 01:01:33;;;;;;;27.40;14.30;;;8.00;99.90;;;;;;5080160;28;20043;-69
2023/12/19 01:04:00;;;;;;;26.80;13.73;;;7.90;99.90;;;;;;5079321;28;20036;-69
2023/12/19 01:06:25;;;;;;;29.10;13.18;;;7.90;99.90;;;;;;5081645;28;20104;-68
2023/12/19 01:08:53;;;;;;;27.43;13.93;;;8.00;99.90;;;;;;5079462;28;20135;-68
2023/12/19 01:11:19;;;;;;;30.23;14.02;;;8.00;99.90;;;;;;5076039;28;20044;-69
2023/12/19 01:13:45;;;;;;;26.80;13.03;;;7.90;99.90;;;;;;5077365;28;20047;-69
2023/12/19 01:16:13;;;;;;;24.20;10.97;;;7.90;99.90;;;;;;5076780;28;20289;-69
2023/12/19 01:18:38;;;;;;;28.95;13.05;;;8.00;99.90;;;;;;5081418;28;20835;-69
2023/12/19 01:21:05;;;;;;;25.67;12.23;;;7.90;99.90;;;;;;5081824;28;20044;-69
2023/12/19 01:23:30;;;;;;;23.95;12.13;;;7.90;99.90;;;;;;5075284;28;20048;-69
2023/12/19 01:25:58;;;;;;;23.93;12.00;;;8.00;99.90;;;;;;5079673;28;20646;-69
2023/12/19 01:28:24;;;;;;;27.00;12.70;;;8.00;99.90;;;;;;5087572;28;20028;-69
2023/12/19 01:30:52;;;;;;;22.77;11.87;;;8.00;99.90;;;;;;5075981;28;20634;-69
2023/12/19 01:33:18;;;;;;;26.30;12.43;;;8.00;99.90;;;;;;5081637;28;20229;-69
2023/12/19 01:35:43;;;;;;;22.77;10.87;;;8.00;99.90;;;;;;5091005;28;20055;-69
2023/12/19 01:38:09;;;;;;;25.90;11.17;;;8.00;99.90;;;;;;5083605;28;20136;-69
2023/12/19 01:40:35;;;;;;;27.17;10.90;;;8.00;99.90;;;;;;5082427;28;20067;-69
2023/12/19 01:43:01;;;;;;;22.20;11.20;;;8.00;99.90;;;;;;5081000;28;20047;-69
2023/12/19 01:45:29;;;;;;;21.05;11.02;;;8.00;99.90;;;;;;5078321;28;20172;-69
2023/12/19 01:47:55;;;;;;;20.05;10.80;;;8.00;99.90;;;;;;5075755;28;20054;-69
2023/12/19 01:50:21;;;;;;;20.15;9.40;;;8.00;99.90;;;;;;5081572;28;20036;-69
2023/12/19 01:52:53;;;;;;;22.97;10.77;;;8.00;99.90;;;;;;5080331;28;20539;-69
2023/12/19 01:55:22;;;;;;;18.98;10.20;;;8.00;99.90;;;;;;5075707;28;20120;-69
2023/12/19 01:57:48;;;;;;;19.38;10.13;;;8.00;99.90;;;;;;5083770;28;20471;-69
2023/12/19 02:00:15;;;;;;;23.50;11.63;;;8.00;99.90;;;;;;5076693;28;20036;-69
2023/12/19 02:02:41;;;;;;;21.50;10.25;;;8.00;99.90;;;;;;5063358;28;20040;-69
2023/12/19 02:05:07;;;;;;;25.08;10.77;;;8.00;99.90;;;;;;5081169;28;20051;-69
2023/12/19 02:07:33;;;;;;;;;;;8.00;99.90;;;;;;5082991;28;20434;-68
2023/12/19 02:10:00;;;;;;;17.42;9.13;;;8.00;99.90;;;;;;5077343;28;19931;-69
2023/12/19 02:12:26;;;;;;;18.27;9.43;;;8.00;99.90;;;;;;5085642;28;20036;-69
2023/12/19 02:14:52;;;;;;;23.00;10.32;;;8.00;99.90;;;;;;5065850;28;20468;-69
2023/12/19 02:17:19;;;;;;;18.20;9.55;;;8.00;99.90;;;;;;5084195;28;20036;-69
2023/12/19 02:19:46;;;;;;;17.10;9.48;;;8.00;99.90;;;;;;5075523;28;20040;-69
2023/12/19 02:22:12;;;;;;;23.20;9.80;;;8.00;99.90;;;;;;5074925;28;20134;-69
2023/12/19 02:24:37;;;;;;;19.70;10.05;;;8.00;99.90;;;;;;5081732;28;20039;-69
2023/12/19 02:27:04;;;;;;;18.93;10.17;;;8.00;99.90;;;;;;5078848;28;20083;-69
2023/12/19 02:29:29;;;;;;;18.75;9.23;;;8.10;99.90;;;;;;5082895;28;20043;-69
2023/12/19 02:31:58;;;;;;;22.45;10.68;;;8.00;99.90;;;;;;5080047;28;20098;-69
2023/12/19 02:34:24;;;;;;;20.95;9.35;;;8.10;99.90;;;;;;5087208;28;20032;-69
2023/12/19 02:36:49;;;;;;;17.77;10.47;;;8.00;99.90;;;;;;5078661;28;20055;-69
2023/12/19 02:39:17;;;;;;;20.90;9.63;;;8.00;99.90;;;;;;5077248;28;20032;-69
2023/12/19 02:41:45;;;;;;;21.27;9.77;;;8.00;99.90;;;;;;5085547;28;20065;-69
2023/12/19 02:44:11;;;;;;;17.13;9.80;;;8.00;99.90;;;;;;5077934;28;20511;-69
2023/12/19 02:46:37;;;;;;;21.07;9.23;;;8.00;99.90;;;;;;5082390;28;20122;-69
2023/12/19 02:49:02;;;;;;;21.73;9.80;;;8.00;99.90;;;;;;5078696;28;20068;-69
2023/12/19 02:51:29;;;;;;;20.23;9.98;;;8.00;99.90;;;;;;5081622;28;20051;-68
2023/12/19 02:53:56;;;;;;;18.10;9.45;;;8.00;99.90;;;;;;5075314;28;20153;-69
2023/12/19 02:56:23;;;;;;;21.10;10.70;;;8.00;99.90;;;;;;5079514;28;20122;-69
2023/12/19 02:58:48;;;;;;;17.90;9.77;;;7.90;99.90;;;;;;5066433;28;20485;-69
2023/12/19 03:01:14;;;;;;;17.13;9.47;;;8.00;99.90;;;;;;5081523;28;20223;-69
2023/12/19 03:03:43;;;;;;;21.00;9.10;;;8.00;99.90;;;;;;5066538;28;20131;-69
2023/12/19 03:06:09;;;;;;;20.00;9.43;;;8.00;99.90;;;;;;5083560;28;20032;-69
2023/12/19 03:08:35;;;;;;;22.50;10.52;;;8.00;99.90;;;;;;5089926;28;20987;-69
2023/12/19 03:11:01;;;;;;;17.75;8.80;;;8.00;99.90;;;;;;5085009;28;20563;-69
2023/12/19 03:13:27;;;;;;;17.48;9.00;;;8.00;99.90;;;;;;5087066;28;20044;-69
2023/12/19 03:15:53;;;;;;;23.53;10.90;;;8.00;99.90;;;;;;5084650;27;20480;-69
2023/12/19 03:18:23;;;;;;;17.80;9.13;;;7.90;99.90;;;;;;5081291;28;20268;-69
2023/12/19 03:20:51;;;;;;;20.70;10.35;;;7.90;99.90;;;;;;5080004;28;20315;-69
2023/12/19 03:23:18;;;;;;;20.73;10.60;;;7.90;99.90;;;;;;5085683;28;20485;-69
2023/12/19 03:25:44;;;;;;;20.65;9.82;;;7.90;99.90;;;;;;5080685;28;20051;-69
2023/12/19 03:28:10;;;;;;;20.40;9.48;;;7.90;99.90;;;;;;5077749;28;20131;-69
2023/12/19 03:30:35;;;;;;;17.30;8.97;;;7.90;99.90;;;;;;5078675;28;20471;-69
2023/12/19 03:33:01;;;;;;;18.37;10.27;;;7.90;99.90;;;;;;5079514;28;20044;-69
2023/12/19 03:35:27;;;;;;;17.53;9.20;;;7.90;99.90;;;;;;5083683;28;20451;-69
2023/12/19 03:37:55;;;;;;;17.70;9.67;;;7.90;99.90;;;;;;5083361;28;20500;-69
2023/12/19 03:40:21;;;;;;;22.48;9.65;;;7.90;99.90;;;;;;5065198;28;20032;-69
2023/12/19 03:42:46;;;;;;;16.80;8.70;;;7.90;99.90;;;;;;5082868;28;20687;-69
2023/12/19 03:45:15;;;;;;;17.42;9.75;;;7.90;99.90;;;;;;5085321;28;20761;-69
2023/12/19 03:47:41;;;;;;;20.13;10.50;;;7.90;99.90;;;;;;5077504;28;20051;-69
2023/12/19 03:50:08;;;;;;;17.52;9.63;;;7.90;99.90;;;;;;5066054;28;20043;-68
2023/12/19 03:52:34;;;;;;;16.92;8.35;;;7.90;99.90;;;;;;5075277;28;20095;-68
2023/12/19 03:55:00;;;;;;;13.52;7.20;;;7.90;99.90;;;;;;5078274;28;20055;-68
2023/12/19 03:57:26;;;;;;;14.87;8.07;;;7.90;99.90;;;;;;5084812;28;20039;-68
2023/12/19 03:59:52;;;;;;;14.25;7.95;;;7.90;99.90;;;;;;5079942;28;20420;-69
2023/12/19 04:02:18;;;;;;;13.10;6.82;;;7.90;99.90;;;;;;5060296;28;20456;-68
2023/12/19 04:04:44;;;;;;;11.03;6.47;;;7.90;99.90;;;;;;5060913;28;20105;-68
2023/12/19 04:07:10;;;;;;;15.97;8.03;;;7.90;99.90;;;;;;5078640;28;20047;-68
2023/12/19 04:09:35;;;;;;;12.68;6.90;;;7.90;99.90;;;;;;5080354;28;20097;-68
2023/12/19 04:12:02;;;;;;;13.07;7.03;;;7.90;99.90;;;;;;5081688;28;20056;-68
2023/12/19 04:14:31;;;;;;;11.73;6.63;;;7.90;99.90;;;;;;5081950;28;20055;-68
2023/12/19 04:16:57;;;;;;;12.95;7.13;;;7.90;99.90;;;;;;5081629;28;20623;-68
2023/12/19 04:19:25;;;;;;;12.38;6.60;;;8.00;99.90;;;;;;5079355;28;20044;-68
2023/12/19 04:21:51;;;;;;;12.30;6.18;;;7.90;99.90;;;;;;5078135;28;20242;-68
2023/12/19 04:24:20;;;;;;;13.85;6.90;;;8.00;99.90;;;;;;5078140;28;20040;-68
2023/12/19 04:26:49;;;;;;;12.95;6.43;;;8.00;99.90;;;;;;5086745;28;20050;-68
2023/12/19 04:29:14;;;;;;;13.32;7.03;;;8.00;99.90;;;;;;5083487;28;20495;-68
2023/12/19 04:31:41;;;;;;;13.57;7.05;;;8.10;99.90;;;;;;5078026;28;20084;-68
2023/12/19 04:34:07;;;;;;;;;;;8.00;99.90;;;;;;5080667;28;20111;-68
2023/12/19 04:36:33;;;;;;;10.68;5.75;;;8.00;99.90;;;;;;5075799;28;20443;-69
2023/12/19 04:38:59;;;;;;;10.85;6.70;;;8.00;99.90;;;;;;5079944;28;20035;-69
2023/12/19 04:41:25;;;;;;;9.60;5.15;;;8.00;99.90;;;;;;5076199;28;20184;-69
2023/12/19 04:43:50;;;;;;;11.37;5.83;;;8.00;99.90;;;;;;5076366;28;20066;-69
2023/12/19 04:46:16;;;;;;;12.43;5.60;;;8.00;99.90;;;;;;5075832;28;20031;-69
2023/12/19 04:48:48;;;;;;;8.93;5.00;;;8.00;99.90;;;;;;5077366;28;20131;-69
2023/12/19 04:51:22;;;;;;;10.73;5.53;;;8.00;99.90;;;;;;5081396;28;20047;-69
2023/12/19 04:53:48;;;;;;;11.40;5.47;;;8.10;99.90;;;;;;5084290;28;20051;-70
2023/12/19 04:56:14;;;;;;;9.93;5.53;;;8.10;99.90;;;;;;5082778;28;20040;-69
2023/12/19 04:58:45;;;;;;;9.27;5.15;;;8.10;99.90;;;;;;5086468;28;20052;-69
2023/12/19 05:01:11;;;;;;;9.73;5.32;;;8.10;99.90;;;;;;5075061;28;21174;-69
2023/12/19 05:03:39;;;;;;;8.50;4.93;;;8.10;99.90;;;;;;5075532;28;20158;-69
2023/12/19 05:06:07;;;;;;;9.52;4.88;;;8.10;99.90;;;;;;5078441;28;20400;-69
2023/12/19 05:08:33;;;;;;;12.38;5.78;;;8.10;99.90;;;;;;5080375;28;20071;-69
2023/12/19 05:10:59;;;;;;;9.37;5.53;;;8.10;99.90;;;;;;5080759;28;20511;-69
2023/12/19 05:13:26;;;;;;;9.10;5.43;;;8.10;99.90;;;;;;5080160;28;20947;-69
2023/12/19 05:15:52;;;;;;;13.55;6.00;;;8.10;99.90;;;;;;5076482;28;20032;-69
2023/12/19 05:18:18;;;;;;;11.23;5.60;;;8.10;99.90;;;;;;5079065;28;20079;-69
2023/12/19 05:20:47;;;;;;;9.88;5.95;;;8.20;99.90;;;;;;5078708;28;20036;-69
2023/12/19 05:23:12;;;;;;;11.00;5.70;;;8.10;99.90;;;;;;5079538;28;20081;-69
2023/12/19 05:25:38;;;;;;;11.37;5.77;;;8.10;99.90;;;;;;5078278;28;20079;-69
2023/12/19 05:28:04;;;;;;;10.03;5.20;;;8.10;99.90;;;;;;5072797;28;20036;-69
2023/12/19 05:30:29;;;;;;;11.38;5.95;;;8.10;99.90;;;;;;5078729;28;20181;-69
2023/12/19 05:32:55;;;;;;;10.27;5.27;;;8.20;99.90;;;;;;5082079;28;20048;-69
2023/12/19 05:35:21;;;;;;;11.57;5.60;;;8.20;99.90;;;;;;5083169;28;20036;-69
2023/12/19 05:37:46;;;;;;;8.40;5.13;;;8.20;99.90;;;;;;5073569;28;20047;-69
2023/12/19 05:40:12;;;;;;;9.30;5.40;;;8.20;99.90;;;;;;5083163;28;20147;-69
2023/12/19 05:42:38;;;;;;;10.13;5.50;;;8.20;99.90;;;;;;5080964;28;20044;-69
2023/12/19 05:45:04;;;;;;;7.27;4.03;;;8.20;99.90;;;;;;5077931;28;20291;-69
2023/12/19 05:47:30;;;;;;;8.65;5.13;;;8.20;99.90;;;;;;5084801;28;20055;-69
2023/12/19 05:49:55;;;;;;;11.60;5.40;;;8.20;99.90;;;;;;5078011;28;20330;-69
2023/12/19 05:52:21;;;;;;;9.20;5.23;;;8.20;99.90;;;;;;5079797;28;20408;-69
2023/12/19 05:54:46;;;;;;;9.23;5.30;;;8.20;99.90;;;;;;5077947;28;20378;-68
2023/12/19 05:57:12;;;;;;;8.43;4.70;;;8.20;99.90;;;;;;5088510;28;20356;-68
2023/12/19 05:59:38;;;;;;;9.67;4.90;;;8.20;99.90;;;;;;5085659;28;20127;-69
2023/12/19 06:02:04;;;;;;;8.90;5.05;;;8.20;99.90;;;;;;5086694;28;20079;-68
2023/12/19 06:04:30;;;;;;;8.20;5.00;;;8.20;99.90;;;;;;5090234;28;20150;-69
2023/12/19 06:06:55;;;;;;;7.93;4.63;;;8.20;99.90;;;;;;5086952;28;20039;-69
2023/12/19 06:09:23;;;;;;;9.02;4.93;;;8.20;99.90;;;;;;5081253;28;20036;-69
2023/12/19 06:11:49;;;;;;;9.50;4.77;;;8.30;99.90;;;;;;5085347;28;20051;-68
2023/12/19 06:14:14;;;;;;;9.17;5.07;;;8.30;99.90;;;;;;5086025;28;20476;-69
2023/12/19 06:16:40;;;;;;;8.93;4.70;;;8.20;99.90;;;;;;5088129;28;20048;-67
2023/12/19 06:19:06;;;;;;;10.18;4.93;;;8.30;99.90;;;;;;5076721;28;20113;-67
2023/12/19 06:21:32;;;;;;;11.37;6.50;;;8.30;99.90;;;;;;5085362;28;20044;-67
2023/12/19 06:23:58;;;;;;;12.07;4.97;;;8.30;99.90;;;;;;5083272;28;20040;-67
2023/12/19 06:26:23;;;;;;;10.05;6.07;;;8.30;99.90;;;;;;5084409;28;20051;-67
2023/12/19 06:28:51;;;;;;;11.33;5.77;;;8.30;99.90;;;;;;5083143;28;20039;-67
2023/12/19 06:31:19;;;;;;;9.05;5.07;;;8.30;99.90;;;;;;5075980;28;20025;-68
2023/12/19 06:33:47;;;;;;;12.18;5.63;;;8.30;99.90;;;;;;5079521;28;20044;-68
2023/12/19 06:36:31;;;;;;;11.50;5.97;;;8.30;99.90;;;;;;5085304;28;20051;-68
2023/12/19 06:38:57;;;;;;;11.07;5.80;;;8.30;99.90;;;;;;5087387;28;20416;-68
2023/12/19 06:41:25;;;;;;;10.53;5.93;;;8.30;99.90;;;;;;5092198;28;20032;-68
2023/12/19 06:43:51;;;;;;;13.48;6.13;;;8.40;99.90;;;;;;5090787;28;20044;-68
2023/12/19 06:46:17;;;;;;;12.40;6.47;;;8.40;99.90;;;;;;5086774;28;20104;-68
2023/12/19 06:48:46;;;;;;;11.48;5.63;;;8.30;99.90;;;;;;5090516;28;20116;-68
2023/12/19 06:51:22;;;;;;;10.18;5.32;;;8.30;99.90;;;;;;5084058;28;20282;-68
2023/12/19 06:53:49;;;;;;;11.75;5.30;;;8.40;99.90;;;;;;5084870;28;20085;-68
2023/12/19 06:56:15;;;;;;;10.48;6.32;;;8.30;99.90;;;;;;5090535;28;20036;-69
2023/12/19 06:58:40;;;;;;;9.17;4.90;;;8.30;99.90;;;;;;5091335;28;20062;-68
2023/12/19 07:01:06;;;;;;;8.67;4.47;;;8.40;99.90;;;;;;5090566;28;20036;-68
2023/12/19 07:03:31;;;;;;;7.20;4.50;;;8.30;99.90;;;;;;5091209;28;20047;-69
2023/12/19 07:05:57;;;;;;;7.83;4.33;;;8.30;99.90;;;;;;5088858;28;20040;-68
2023/12/19 07:08:23;;;;;;;8.40;4.27;;;8.30;99.90;;;;;;5077945;28;20036;-69
2023/12/19 07:10:50;;;;;;;7.85;3.92;;;8.30;99.90;;;;;;5076853;28;20043;-69
2023/12/19 07:13:15;;;;;;;7.20;4.18;;;8.40;99.90;;;;;;5079483;28;20129;-69
2023/12/19 07:15:41;;;;;;;7.30;4.00;;;8.40;99.90;;;;;;5083388;28;20032;-68
2023/12/19 07:18:07;;;;;;;6.90;3.67;;;8.40;99.90;;;;;;5089217;28;20630;-69
2023/12/19 07:20:35;;;;;;;6.13;3.47;;;8.40;99.90;;;;;;5090221;28;20037;-69
2023/12/19 07:23:01;;;;;;;7.18;3.60;;;8.40;99.90;;;;;;5085641;28;20071;-68
2023/12/19 07:25:26;;;;;;;7.80;4.30;;;8.40;99.90;;;;;;5086155;28;20440;-68
2023/12/19 07:27:52;;;;;;;9.07;4.70;;;8.40;99.90;;;;;;5086217;28;20044;-68
2023/12/19 07:30:18;;;;;;;7.47;3.70;;;8.40;99.90;;;;;;5080584;28;20063;-68
2023/12/19 07:32:44;;;;;;;6.97;4.10;;;8.40;99.90;;;;;;5089570;28;20280;-68
2023/12/19 07:35:09;;;;;;;7.32;3.33;;;8.50;99.90;;;;;;5085265;28;20043;-68
2023/12/19 07:37:36;;;;;;;5.63;3.00;;;8.50;99.90;;;;;;5091530;28;20063;-68
2023/12/19 07:40:02;;;;;;;4.88;2.85;;;8.50;99.90;;;;;;5086051;28;20044;-67
2023/12/19 07:42:28;;;;;;;6.15;3.30;;;8.50;99.90;;;;;;5088904;28;20036;-68
2023/12/19 07:44:53;;;;;;;5.57;3.03;;;8.50;99.90;;;;;;5089085;28;20043;-67
2023/12/19 07:47:22;;;;;;;6.43;3.60;;;8.50;99.90;;;;;;5090909;28;20126;-67
2023/12/19 07:49:50;;;;;;;5.57;2.80;;;8.60;99.90;;;;;;5090683;28;20043;-67
2023/12/19 07:52:16;;;;;;;5.20;3.00;;;8.60;99.90;;;;;;5087978;28;20047;-67
2023/12/19 07:54:47;;;;;;;5.78;3.17;;;8.60;99.90;;;;;;5082369;28;20028;-67
2023/12/19 07:57:12;;;;;;;5.50;3.20;;;8.60;99.90;;;;;;5081695;28;20063;-67
2023/12/19 07:59:39;;;;;;;5.90;3.17;;;8.60;99.90;;;;;;5083534;28;20033;-67
2023/12/19 08:02:05;;;;;;;6.20;3.35;;;8.60;99.90;;;;;;5082727;28;20043;-68
2023/12/19 08:04:31;;;;;;;9.07;4.43;;;8.60;99.90;;;;;;5082272;28;20110;-67
2023/12/19 08:06:57;;;;;;;6.25;3.33;;;8.60;99.90;;;;;;5085507;28;20123;-67
2023/12/19 08:09:22;;;;;;;6.90;4.03;;;8.60;99.90;;;;;;5085171;28;20131;-67
2023/12/19 08:11:49;;;;;;;9.40;4.20;;;8.60;99.90;;;;;;5080692;28;20048;-68
2023/12/19 08:14:14;;;;;;;7.95;4.55;;;8.60;99.90;;;;;;5063327;28;20032;-68
2023/12/19 08:16:40;;;;;;;8.95;4.45;;;8.60;99.90;;;;;;5086803;28;20499;-68
2023/12/19 08:19:06;;;;;;;10.67;4.97;;;8.60;99.90;;;;;;5074301;28;20097;-68
2023/12/19 08:21:32;;;;;;;8.83;5.07;;;8.60;99.90;;;;;;5082158;28;20042;-67
2023/12/19 08:23:57;;;;;;;7.20;4.20;;;8.60;99.90;;;;;;5088774;28;20066;-67
2023/12/19 08:26:24;;;;;;;9.73;5.03;;;8.60;99.90;;;;;;5076009;28;20040;-68
2023/12/19 08:28:50;;;;;;;9.70;4.88;;;8.70;99.90;;;;;;5078228;28;20082;-67
2023/12/19 08:31:15;;;;;;;9.43;4.40;;;8.70;99.90;;;;;;5081100;28;20447;-67
2023/12/19 08:33:43;;;;;;;9.80;4.83;;;8.70;99.90;;;;;;5082950;28;20040;-67
2023/12/19 08:36:09;;;;;;;9.40;4.60;;;8.70;99.90;;;;;;5079974;28;20036;-68
2023/12/19 08:38:35;;;;;;;8.30;4.68;;;8.70;99.90;;;;;;5089259;28;20032;-67
2023/12/19 08:41:01;;;;;;;7.53;4.50;;;8.70;99.90;;;;;;5080503;28;20047;-68
2023/12/19 08:43:28;;;;;;;7.00;3.87;;;8.70;99.90;;;;;;5079728;28;20039;-67
2023/12/19 08:45:54;;;;;;;5.47;3.47;;;8.70;99.90;;;;;;5087242;28;20331;-67
2023/12/19 08:48:19;;;;;;;6.90;3.70;;;8.80;99.90;;;;;;5089325;28;20075;-67
2023/12/19 08:50:45;;;;;;;8.37;3.70;;;8.80;99.90;;;;;;5085652;28;20040;-67
2023/12/19 08:53:12;;;;;;;5.97;3.40;;;8.80;99.90;;;;;;5070464;28;20518;-67
2023/12/19 08:55:39;;;;;;;6.35;3.92;;;8.80;99.90;;;;;;5081733;28;20040;-67
2023/12/19 08:58:05;;;;;;;5.88;3.70;;;8.80;99.90;;;;;;5085311;28;20232;-68
2023/12/19 09:00:30;;;;;;;6.13;3.27;;;8.80;99.90;;;;;;5081348;28;20549;-68
2023/12/19 09:02:56;;;;;;;6.47;3.67;;;8.80;99.90;;;;;;5088042;28;20126;-68
2023/12/19 09:05:22;;;;;;;5.53;3.30;;;8.80;99.90;;;;;;5062105;28;20040;-67
2023/12/19 09:07:47;;;;;;;5.00;2.97;;;8.80;99.90;;;;;;5078174;28;20158;-67
2023/12/19 09:10:14;;;;;;;6.05;2.63;;;8.80;99.90;;;;;;5079578;28;20076;-67
2023/12/19 09:12:40;;;;;;;4.30;2.58;;;8.90;99.90;;;;;;5089160;28;20115;-67
2023/12/19 09:15:06;;;;;;;5.82;3.40;;;8.90;99.90;;;;;;5086855;28;20169;-67
2023/12/19 09:17:33;;;;;;;5.68;3.30;;;8.80;99.90;;;;;;5087525;28;20048;-68
2023/12/19 09:19:59;;;;;;;4.70;3.03;;;8.90;99.90;;;;;;5073380;28;20416;-68
2023/12/19 09:22:25;;;;;;;;;;;8.90;99.90;;;;;;5082494;28;20084;-67
2023/12/19 09:24:51;;;;;;;6.10;3.20;;;8.80;99.90;;;;;;5072552;28;20348;-67
2023/12/19 09:27:17;;;;;;;4.68;2.90;;;8.90;99.90;;;;;;5086739;28;20515;-67
2023/12/19 09:29:43;;;;;;;6.30;3.42;;;8.90;99.90;;;;;;5090436;28;20036;-67
2023/12/19 09:32:09;;;;;;;6.30;3.80;;;8.90;99.90;;;;;;5086999;28;20040;-67
2023/12/19 09:34:38;;;;;;;12.80;5.82;;;8.90;99.90;;;;;;5080823;28;20377;-67
2023/12/19 09:37:05;;;;;;;7.93;4.32;;;9.00;99.90;;;;;;5083242;28;20050;-67
2023/12/19 09:39:30;;;;;;;;;;;9.00;99.90;;;;;;5084644;28;20040;-67
2023/12/19 09:41:58;;;;;;;6.32;3.47;;;8.90;99.90;;;;;;5082578;28;19922;-67
2023/12/19 09:44:25;;;;;;;9.88;4.13;;;9.00;99.90;;;;;;5086988;28;20044;-67
2023/12/19 09:46:52;;;;;;;7.88;4.53;;;9.00;99.90;;;;;;5084256;28;20044;-68
2023/12/19 09:49:22;;;;;;;7.00;4.28;;;9.00;99.90;;;;;;5086706;28;20114;-67
2023/12/19 09:51:53;;;;;;;8.27;4.43;;;9.00;99.90;;;;;;5068571;28;20066;-67
2023/12/19 09:54:20;;;;;;;9.60;4.68;;;9.10;99.90;;;;;;5086968;28;20161;-67
2023/12/19 09:56:47;;;;;;;8.13;4.18;;;9.10;99.90;;;;;;5068316;28;20039;-68
2023/12/19 09:59:18;;;;;;;10.45;5.22;;;9.10;99.90;;;;;;5083471;28;20044;-67
2023/12/19 10:01:44;;;;;;;8.45;4.93;;;9.20;99.90;;;;;;5081881;28;20055;-67
2023/12/19 10:04:13;;;;;;;11.38;5.55;;;9.20;99.90;;;;;;5085935;28;20040;-68
2023/12/19 10:06:54;;;;;;;10.93;5.78;;;9.20;99.90;;;;;;5069491;28;20196;-68
2023/12/19 10:09:21;;;;;;;12.50;4.78;;;9.20;99.90;;;;;;5088380;28;20044;-67
2023/12/19 10:12:01;;;;;;;9.52;5.65;;;9.30;99.90;;;;;;5084097;28;20040;-67
2023/12/19 10:14:26;;;;;;;11.13;5.80;;;9.30;99.90;;;;;;5081939;28;20528;-67
2023/12/19 10:16:53;;;;;;;8.83;5.20;;;9.30;99.90;;;;;;5090856;28;20119;-67
2023/12/19 10:19:25;;;;;;;;;;;9.40;99.90;;;;;;5074024;28;20036;-67
2023/12/19 10:21:59;;;;;;;9.07;5.53;;;9.40;99.90;;;;;;5073392;28;19974;-71
2023/12/19 10:24:26;;;;;;;10.75;5.93;;;9.50;99.90;;;;;;5091642;28;20075;-70
2023/12/19 10:26:59;;;;;;;9.90;6.05;;;9.40;99.90;;;;;;5073333;28;20039;-67
2023/12/19 10:29:24;;;;;;;9.25;5.80;;;9.50;99.90;;;;;;5072772;28;20368;-68
2023/12/19 10:31:50;;;;;;;10.03;6.33;;;9.50;99.90;;;;;;5090265;28;20449;-67
2023/12/19 10:34:18;;;;;;;10.47;6.27;;;9.50;99.90;;;;;;5093692;28;20070;-67
2023/12/19 10:36:44;;;;;;;11.68;6.05;;;9.50;99.90;;;;;;5086754;28;20036;-67
2023/12/19 10:39:11;;;;;;;9.03;5.50;;;9.60;99.90;;;;;;5082227;28;20047;-67
2023/12/19 10:41:40;;;;;;;9.02;5.13;;;9.60;99.90;;;;;;5087501;28;20040;-67
2023/12/19 10:44:07;;;;;;;8.48;5.32;;;9.50;99.90;;;;;;5096938;28;20036;-67
2023/12/19 10:46:33;;;;;;;8.63;5.35;;;9.50;99.90;;;;;;5081458;28;20097;-67
2023/12/19 10:49:03;;;;;;;10.38;5.45;;;9.50;99.90;;;;;;5096651;28;20040;-67
2023/12/19 10:51:33;;;;;;;10.80;5.45;;;9.60;99.90;;;;;;5080901;28;20501;-67
2023/12/19 10:54:09;;;;;;;7.22;4.32;;;9.60;99.90;;;;;;5086531;28;20041;-67
2023/12/19 10:57:00;;;;;;;8.23;5.03;;;9.50;99.90;;;;;;5084070;28;20036;-66
2023/12/19 10:59:48;;;;;;;9.18;5.30;;;9.60;99.90;;;;;;5080229;28;20036;-67
2023/12/19 11:02:38;;;;;;;7.55;4.40;;;9.50;99.90;;;;;;5090128;28;20044;-67
2023/12/19 11:05:16;;;;;;;6.78;3.90;;;9.60;99.90;;;;;;5084379;28;20113;-68
2023/12/19 11:07:42;;;;;;;6.72;3.85;;;9.60;99.90;;;;;;5085830;28;20178;-67
2023/12/19 11:10:09;;;;;;;5.90;3.28;;;9.60;99.90;;;;;;5089786;28;20310;-67
2023/12/19 11:12:37;;;;;;;7.45;4.05;;;9.60;99.90;;;;;;5090254;28;20514;-67
2023/12/19 11:15:05;;;;;;;6.88;4.03;;;9.60;99.90;;;;;;5080009;28;20063;-67
2023/12/19 11:17:47;;;;;;;6.55;3.90;;;9.60;99.90;;;;;;5087684;28;20040;-70
2023/12/19 11:20:39;;;;;;;6.90;4.03;;;9.60;99.90;;;;;;5086676;28;20036;-68
2023/12/19 11:23:40;;;;;;;7.68;4.18;;;9.60;99.90;;;;;;5083954;28;20050;-67
2023/12/19 11:26:23;;;;;;;7.63;4.15;;;9.60;99.90;;;;;;5082712;28;20131;-67
2023/12/19 11:28:49;;;;;;;8.45;4.07;;;9.50;99.90;;;;;;5091549;28;20381;-67
2023/12/19 11:31:31;;;;;;;7.00;4.20;;;9.60;99.90;;;;;;5076787;28;20043;-67
2023/12/19 11:34:21;;;;;;;7.47;4.22;;;9.60;99.90;;;;;;5062507;28;20089;-67
2023/12/19 11:36:47;;;;;;;7.80;4.20;;;9.60;99.90;;;;;;5085102;28;20507;-67
2023/12/19 11:39:24;;;;;;;6.35;4.20;;;9.60;99.90;;;;;;5081677;28;20052;-67
2023/12/19 11:41:50;;;;;;;6.72;3.75;;;9.60;99.90;;;;;;5075839;28;20127;-68
2023/12/19 11:44:35;;;;;;;7.70;3.77;;;9.60;99.90;;;;;;5088018;28;20123;-68
2023/12/19 11:47:18;;;;;;;7.30;4.00;;;9.60;99.90;;;;;;5086773;28;20048;-67
2023/12/19 11:49:45;;;;;;;6.95;3.70;;;9.60;99.90;;;;;;5083028;28;20408;-67
2023/12/19 11:52:33;;;;;;;7.20;3.83;;;9.60;99.90;;;;;;5084945;28;20246;-67
2023/12/19 11:55:03;;;;;;;7.85;3.88;;;9.60;99.90;;;;;;5078165;28;20083;-68
2023/12/19 11:57:29;;;;;;;6.50;3.80;;;9.60;99.90;;;;;;5078550;28;20152;-67
2023/12/19 11:59:55;;;;;;;7.60;3.67;;;9.50;99.90;;;;;;5084984;28;20112;-67
2023/12/19 12:02:34;;;;;;;;;;;9.60;99.90;;;;;;5061970;28;20105;-67
2023/12/19 12:05:08;;;;;;;6.60;3.15;;;9.60;99.90;;;;;;5078417;28;20021;-67
2023/12/19 12:07:40;;;;;;;6.90;2.90;;;9.60;99.90;;;;;;5086593;28;20044;-67
2023/12/19 12:10:09;;;;;;;5.63;3.42;;;9.70;99.90;;;;;;5089589;28;20066;-71
2023/12/19 12:12:36;;;;;;;6.65;4.07;;;9.60;99.90;;;;;;5074817;28;20480;-68
2023/12/19 12:15:05;;;;;;;;;;;9.60;99.90;;;;;;5093835;28;20278;-68
2023/12/19 12:17:33;;;;;;;5.55;3.13;;;9.60;99.90;;;;;;5089674;28;19924;-68
2023/12/19 12:19:59;;;;;;;5.45;2.95;;;9.60;99.90;;;;;;5086620;28;20051;-68
2023/12/19 12:22:25;;;;;;;6.20;3.33;;;9.60;99.90;;;;;;5088008;28;20040;-68
2023/12/19 12:24:53;;;;;;;5.43;2.77;;;9.60;99.90;;;;;;5085152;28;20074;-68
2023/12/19 12:27:20;;;;;;;6.07;2.63;;;9.60;99.90;;;;;;5084519;28;20044;-68
2023/12/19 12:29:46;;;;;;;5.40;2.80;;;9.60;99.90;;;;;;5087276;28;20346;-69
2023/12/19 12:32:12;;;;;;;5.10;2.60;;;9.60;99.90;;;;;;5085640;28;20055;-68
2023/12/19 12:34:38;;;;;;;4.90;2.40;;;9.60;99.90;;;;;;5089329;28;20063;-69
2023/12/19 12:37:05;;;;;;;5.82;3.15;;;9.60;99.90;;;;;;5082780;28;20047;-68
2023/12/19 12:39:31;;;;;;;;;;;9.70;99.90;;;;;;5081718;28;20072;-68
2023/12/19 12:42:04;;;;;;;5.05;2.67;;;9.70;99.90;;;;;;5084496;28;20346;-68
2023/12/19 12:44:30;;;;;;;5.22;2.75;;;9.70;99.90;;;;;;5079190;28;20131;-69
2023/12/19 12:46:55;;;;;;;4.37;2.57;;;9.70;99.90;;;;;;5082919;28;20123;-68
2023/12/19 12:49:21;;;;;;;3.73;1.93;;;9.70;99.90;;;;;;5086300;28;20721;-68
2023/12/19 12:51:47;;;;;;;5.20;2.80;;;9.70;99.90;;;;;;5086504;28;20089;-68
2023/12/19 12:54:20;;;;;;;4.72;2.78;;;9.70;99.90;;;;;;5088272;28;20046;-68